createdAt,value
2023-05-06T00:09:21.530Z,7.91
2023-05-06T00:13:13.739Z,7.83
2023-05-06T00:16:58.150Z,7.77
2023-05-06T00:36:19.248Z,7.44
2023-05-06T00:39:50.959Z,7.41
2023-05-06T00:43:36.564Z,7.36
2023-05-06T00:46:40.356Z,7.31
2023-05-06T00:50:31.888Z,7.26
2023-05-06T00:54:11.306Z,7.19
2023-05-06T00:57:45.040Z,7.16
2023-05-06T01:01:19.484Z,7.15
2023-05-06T01:04:31.253Z,7.12
2023-05-06T01:23:23.087Z,6.92
2023-05-06T01:27:17.160Z,6.82
2023-05-06T01:31:10.472Z,6.76
2023-05-06T01:35:27.989Z,6.73
2023-05-06T01:38:58.505Z,6.69
2023-05-06T01:42:13.277Z,6.65
2023-05-06T01:45:54.920Z,6.67
2023-05-06T01:49:18.696Z,6.65
2023-05-06T01:52:51.484Z,6.58
2023-05-06T01:56:28.437Z,6.53
2023-05-06T02:15:25.693Z,6.44
2023-05-06T02:19:17.108Z,6.36
2023-05-06T02:23:10.670Z,6.34
2023-05-06T02:26:56.364Z,6.29
2023-05-06T02:30:30.397Z,6.22
2023-05-06T02:34:22.709Z,6.15
2023-05-06T02:38:07.934Z,6.11
2023-05-06T03:01:21.185Z,6.02
2023-05-06T03:05:13.810Z,5.87
2023-05-06T03:09:05.960Z,5.77
2023-05-06T03:12:58.706Z,5.69
2023-05-06T03:36:19.727Z,5.59
2023-05-06T03:40:12.493Z,5.57
2023-05-06T03:44:04.914Z,5.57
2023-05-06T03:47:58.558Z,5.56
2023-05-06T03:52:13.959Z,5.66
2023-05-06T03:56:06.914Z,5.64
2023-05-06T04:11:46.913Z,5.86
2023-05-06T04:15:37.660Z,5.88
2023-05-06T04:19:30.184Z,5.98
2023-05-06T04:35:15.318Z,6.62
2023-05-06T04:39:07.187Z,6.82
2023-05-06T05:05:51.185Z,8.23
2023-05-06T05:09:02.726Z,8.43
2023-05-06T05:12:17.741Z,8.63
2023-05-06T05:15:33.286Z,8.81
2023-05-06T05:18:23.727Z,9.03
2023-05-06T05:22:10.356Z,9.23
2023-05-06T05:25:25.059Z,9.45
2023-05-06T05:28:32.096Z,9.67
2023-05-06T05:31:57.225Z,9.88
2023-05-06T05:35:13.563Z,10.06
2023-05-06T05:38:40.381Z,10.27
2023-05-06T05:42:10.978Z,10.55
2023-05-06T05:45:28.486Z,10.79
2023-05-06T05:48:40.772Z,11.01
2023-05-06T05:52:22.979Z,11.28
2023-05-06T05:55:55.069Z,11.54
2023-05-06T06:02:48.667Z,11.99
2023-05-06T06:06:03.766Z,12.23
2023-05-06T06:09:24.947Z,12.51
2023-05-06T06:12:22.785Z,12.75
2023-05-06T06:25:50.174Z,13.75
2023-05-06T06:31:57.944Z,14.33
2023-05-06T06:35:04.810Z,14.49
2023-05-06T06:38:24.068Z,14.75
2023-05-06T06:41:35.321Z,15.01
2023-05-06T06:45:08.432Z,15.23
2023-05-06T06:48:02.494Z,15.45
2023-05-06T06:50:52.982Z,15.62
2023-05-06T06:53:43.719Z,15.79
2023-05-06T06:56:54.522Z,15.95
2023-05-06T06:59:48.551Z,16.15
2023-05-06T07:03:20.092Z,16.36
2023-05-06T07:06:29.621Z,16.61
2023-05-06T07:09:40.340Z,16.87
2023-05-06T07:13:05.192Z,17.13
2023-05-06T07:16:07.886Z,17.38
2023-05-06T07:18:51.252Z,17.62
2023-05-06T07:22:08.962Z,17.82
2023-05-06T07:24:46.215Z,18.00
2023-05-06T07:27:41.242Z,18.20
2023-05-06T07:30:52.372Z,18.43
2023-05-06T07:33:49.674Z,18.68
2023-05-06T07:36:46.633Z,18.91
2023-05-06T07:39:44.697Z,19.04
2023-05-06T07:42:32.991Z,19.11
2023-05-06T07:45:48.743Z,19.26
2023-05-06T07:48:35.370Z,19.49
2023-05-06T07:51:41.356Z,19.70
2023-05-06T07:54:48.777Z,19.84
2023-05-06T07:58:07.624Z,20.12
2023-05-06T08:01:15.399Z,20.33
2023-05-06T08:04:23.983Z,20.50
2023-05-06T08:07:26.144Z,20.69
2023-05-06T08:10:37.118Z,20.93
2023-05-06T08:13:33.935Z,21.12
2023-05-06T08:16:27.988Z,21.38
2023-05-06T08:19:56.333Z,21.60
2023-05-06T08:23:02.424Z,21.79
2023-05-06T08:26:24.548Z,22.13
2023-05-06T08:29:28.195Z,22.52
2023-05-06T08:32:22.123Z,22.72
2023-05-06T08:35:01.709Z,22.72
2023-05-06T08:38:14.356Z,22.94
2023-05-06T08:41:29.643Z,23.11
2023-05-06T08:44:33.955Z,23.33
2023-05-06T08:47:16.377Z,23.38
2023-05-06T08:49:53.580Z,23.43
2023-05-06T08:52:29.359Z,23.54
2023-05-06T08:55:20.601Z,23.62
2023-05-06T08:58:04.393Z,23.71
2023-05-06T09:01:03.667Z,23.75
2023-05-06T09:03:56.910Z,23.73
2023-05-06T09:06:50.800Z,23.61
2023-05-06T09:09:43.943Z,23.67
2023-05-06T09:12:39.993Z,23.89
2023-05-06T09:15:42.658Z,23.90
2023-05-06T09:18:32.092Z,24.18
2023-05-06T09:21:08.709Z,24.26
2023-05-06T09:23:42.837Z,24.13
2023-05-06T09:26:23.425Z,24.03
2023-05-06T09:29:47.688Z,24.29
2023-05-06T09:32:50.571Z,24.47
2023-05-06T09:35:47.359Z,24.46
2023-05-06T09:38:27.729Z,24.22
2023-05-06T09:41:15.674Z,24.17
2023-05-06T09:43:52.533Z,24.24
2023-05-06T09:47:01.843Z,24.32
2023-05-06T09:49:39.392Z,24.52
2023-05-06T09:52:12.296Z,24.67
2023-05-06T09:54:55.428Z,24.90
2023-05-06T09:57:26.632Z,25.06
2023-05-06T10:00:19.739Z,25.16
2023-05-06T10:02:51.215Z,25.41
2023-05-06T10:05:26.919Z,25.42
2023-05-06T10:07:59.668Z,25.28
2023-05-06T10:10:35.897Z,25.20
2023-05-06T10:13:06.482Z,24.99
2023-05-06T10:15:37.964Z,24.63
2023-05-06T10:18:16.310Z,24.46
2023-05-06T10:21:01.561Z,24.52
2023-05-06T10:23:47.550Z,24.67
2023-05-06T10:26:22.404Z,24.91
2023-05-06T10:29:13.964Z,24.97
2023-05-06T10:32:05.942Z,25.23
2023-05-06T10:34:54.023Z,25.21
2023-05-06T10:37:31.085Z,25.38
2023-05-06T10:40:02.222Z,25.68
2023-05-06T10:42:36.112Z,25.54
2023-05-06T10:45:07.727Z,25.54
2023-05-06T10:48:21.272Z,25.48
2023-05-06T10:50:51.568Z,25.11
2023-05-06T10:54:07.311Z,25.10
2023-05-06T10:57:03.191Z,24.98
2023-05-06T10:59:34.566Z,25.02
2023-05-06T11:02:14.402Z,25.23
2023-05-06T11:05:02.249Z,25.52
2023-05-06T11:07:37.152Z,25.48
2023-05-06T11:10:12.502Z,25.24
2023-05-06T11:13:02.751Z,24.99
2023-05-06T11:15:41.657Z,24.78
2023-05-06T11:18:33.996Z,24.64
2023-05-06T11:21:14.783Z,24.38
2023-05-06T11:23:49.840Z,24.26
2023-05-06T11:26:33.822Z,24.36
2023-05-06T11:29:04.802Z,24.61
2023-05-06T11:31:44.593Z,24.81
2023-05-06T11:34:32.654Z,24.88
2023-05-06T11:37:08.267Z,24.63
2023-05-06T11:39:50.174Z,24.48
2023-05-06T11:42:33.109Z,24.75
2023-05-06T11:45:07.837Z,25.07
2023-05-06T11:47:44.992Z,25.12
2023-05-06T11:50:22.945Z,25.01
2023-05-06T11:52:56.504Z,25.09
2023-05-06T11:55:28.546Z,25.24
2023-05-06T11:58:05.002Z,25.29
2023-05-06T12:00:49.728Z,25.24
2023-05-06T12:03:22.576Z,25.35
2023-05-06T12:05:56.855Z,25.54
2023-05-06T12:08:36.412Z,25.77
2023-05-06T12:11:11.868Z,25.97
2023-05-06T12:13:41.530Z,25.93
2023-05-06T12:16:26.249Z,26.10
2023-05-06T12:19:07.265Z,26.04
2023-05-06T12:21:47.480Z,25.90
2023-05-06T12:24:34.166Z,25.69
2023-05-06T12:27:06.245Z,25.58
2023-05-06T12:29:40.081Z,25.39
2023-05-06T12:32:12.373Z,25.21
2023-05-06T12:35:07.976Z,24.96
2023-05-06T12:37:42.771Z,25.03
2023-05-06T12:40:38.813Z,25.29
2023-05-06T12:43:31.773Z,25.61
2023-05-06T12:46:18.429Z,25.74
2023-05-06T12:49:17.313Z,25.73
2023-05-06T12:52:08.565Z,25.62
2023-05-06T12:55:04.740Z,25.23
2023-05-06T12:57:37.649Z,25.02
2023-05-06T13:00:16.514Z,24.83
2023-05-06T13:02:52.476Z,24.73
2023-05-06T13:05:40.836Z,24.68
2023-05-06T13:08:18.025Z,24.52
2023-05-06T13:10:50.827Z,24.15
2023-05-06T13:13:37.195Z,23.89
2023-05-06T13:16:20.505Z,23.79
2023-05-06T13:19:00.768Z,23.72
2023-05-06T13:21:34.796Z,23.54
2023-05-06T13:24:24.287Z,23.55
2023-05-06T13:26:57.632Z,23.53
2023-05-06T13:29:35.685Z,23.53
2023-05-06T13:32:08.641Z,23.45
2023-05-06T13:34:42.574Z,23.27
2023-05-06T13:37:13.473Z,23.17
2023-05-06T13:40:05.469Z,23.05
2023-05-06T13:42:42.051Z,22.69
2023-05-06T13:45:34.149Z,22.18
2023-05-06T13:48:10.694Z,21.72
2023-05-06T13:50:53.945Z,20.95
2023-05-06T13:53:56.267Z,20.54
2023-05-06T13:56:49.280Z,20.41
2023-05-06T13:59:36.859Z,20.31
2023-05-06T14:02:39.198Z,20.28
2023-05-06T14:05:12.486Z,20.26
2023-05-06T14:08:09.766Z,20.21
2023-05-06T14:11:07.061Z,19.94
2023-05-06T14:13:56.166Z,19.69
2023-05-06T14:17:03.355Z,19.63
2023-05-06T14:19:53.275Z,19.53
2023-05-06T14:22:41.896Z,19.40
2023-05-06T14:25:59.093Z,19.30
2023-05-06T14:28:39.385Z,19.25
2023-05-06T14:32:16.329Z,19.19
2023-05-06T14:35:13.148Z,19.10
2023-05-06T14:38:24.677Z,19.04
2023-05-06T14:41:14.555Z,19.03
2023-05-06T14:44:32.132Z,19.04
2023-05-06T14:47:09.633Z,19.06
2023-05-06T14:50:10.174Z,19.06
2023-05-06T14:53:15.850Z,19.08
2023-05-06T14:55:57.679Z,19.05
2023-05-06T14:58:45.103Z,19.02
2023-05-06T15:01:52.379Z,19.04
2023-05-06T15:04:46.264Z,19.04
2023-05-06T15:07:43.940Z,19.10
2023-05-06T15:10:41.185Z,19.12
2023-05-06T15:13:48.651Z,19.16
2023-05-06T15:16:32.568Z,19.19
2023-05-06T15:19:28.991Z,19.20
2023-05-06T15:22:24.789Z,19.23
2023-05-06T15:25:06.639Z,19.27
2023-05-06T15:27:46.301Z,19.26
2023-05-06T15:30:31.617Z,19.33
2023-05-06T15:33:28.832Z,19.47
2023-05-06T15:36:27.203Z,19.68
2023-05-06T15:39:50.689Z,19.93
2023-05-06T15:42:41.508Z,20.18
2023-05-06T15:45:45.749Z,20.36
2023-05-06T15:48:57.590Z,20.48
2023-05-06T15:51:51.032Z,20.50
2023-05-06T15:54:38.531Z,20.48
2023-05-06T15:57:21.660Z,20.42
2023-05-06T16:00:01.582Z,20.32
2023-05-06T16:02:35.897Z,20.25
2023-05-06T16:05:44.670Z,20.19
2023-05-06T16:08:39.241Z,20.14
2023-05-06T16:11:24.006Z,20.11
2023-05-06T16:14:13.435Z,20.08
2023-05-06T16:17:00.941Z,20.01
2023-05-06T16:20:00.555Z,19.89
2023-05-06T16:23:16.776Z,19.82
2023-05-06T16:26:13.736Z,19.74
2023-05-06T16:29:17.745Z,19.71
2023-05-06T16:32:37.957Z,19.68
2023-05-06T16:35:30.913Z,19.58
2023-05-06T16:38:15.204Z,19.55
2023-05-06T16:41:15.281Z,19.52
2023-05-06T16:44:27.856Z,19.49
2023-05-06T16:47:15.307Z,19.44
2023-05-06T16:50:07.160Z,19.40
2023-05-06T16:52:53.463Z,19.35
2023-05-06T16:56:20.410Z,19.29
2023-05-06T16:59:12.921Z,19.23
2023-05-06T17:02:21.176Z,19.18
2023-05-06T17:05:23.478Z,19.11
2023-05-06T17:08:38.575Z,19.05
2023-05-06T17:11:32.866Z,18.94
2023-05-06T17:14:32.741Z,18.89
2023-05-06T17:17:45.114Z,18.92
2023-05-06T17:20:57.049Z,18.94
2023-05-06T17:23:56.621Z,18.92
2023-05-06T17:26:34.776Z,18.87
2023-05-06T17:29:23.482Z,18.79
2023-05-06T17:32:23.244Z,18.68
2023-05-06T17:35:21.760Z,18.59
2023-05-06T17:38:22.784Z,18.49
2023-05-06T17:41:40.574Z,18.39
2023-05-06T17:44:42.423Z,18.27
2023-05-06T17:47:30.632Z,18.11
2023-05-06T17:50:27.408Z,17.94
2023-05-06T17:53:46.022Z,17.81
2023-05-06T17:56:59.813Z,17.66
2023-05-06T18:00:13.006Z,17.56
2023-05-06T18:03:47.609Z,17.47
2023-05-06T18:06:42.356Z,17.36
2023-05-06T18:09:53.331Z,17.25
2023-05-06T18:12:52.579Z,17.11
2023-05-06T18:16:00.179Z,16.99
2023-05-06T18:18:48.762Z,16.91
2023-05-06T18:21:51.863Z,16.84
2023-05-06T18:25:10.217Z,16.78
2023-05-06T18:27:59.274Z,16.68
2023-05-06T18:31:04.211Z,16.57
2023-05-06T18:34:04.303Z,16.48
2023-05-06T18:36:52.992Z,16.42
2023-05-06T18:39:48.534Z,16.39
2023-05-06T18:43:01.657Z,16.35
2023-05-06T18:46:10.320Z,16.29
2023-05-06T18:49:16.033Z,16.23
2023-05-06T18:52:14.774Z,16.19
2023-05-06T18:55:10.867Z,16.19
2023-05-06T18:58:17.941Z,16.18
2023-05-06T19:01:07.509Z,16.20
2023-05-06T19:04:09.854Z,16.20
2023-05-06T19:07:05.650Z,16.18
2023-05-06T19:10:03.825Z,16.21
2023-05-06T19:13:06.123Z,16.20
2023-05-06T19:16:33.112Z,16.19
2023-05-06T19:19:38.244Z,16.15
2023-05-06T19:22:57.967Z,16.14
2023-05-06T19:25:48.223Z,16.11
2023-05-06T19:28:50.558Z,16.06
2023-05-06T19:32:02.689Z,15.98
2023-05-06T19:35:09.046Z,15.89
2023-05-06T19:38:09.945Z,15.84
2023-05-06T19:41:32.278Z,15.83
2023-05-06T19:44:38.562Z,15.79
2023-05-06T19:47:33.418Z,15.72
2023-05-06T19:50:40.985Z,15.64
2023-05-06T19:54:00.636Z,15.61
2023-05-06T19:57:07.844Z,15.60
2023-05-06T20:00:10.834Z,15.58
2023-05-06T20:03:45.827Z,15.58
2023-05-06T20:06:54.319Z,15.57
2023-05-06T20:09:58.115Z,15.55
2023-05-06T20:13:18.705Z,15.54
2023-05-06T20:16:30.619Z,15.50
2023-05-06T20:20:08.803Z,15.38
2023-05-06T20:23:31.069Z,15.24
2023-05-06T20:26:46.875Z,15.27
2023-05-06T22:44:20.126Z,13.38
2023-05-06T22:47:35.649Z,13.37
2023-05-06T22:51:00.765Z,13.37
2023-05-06T23:51:03.135Z,12.16
2023-05-06T23:54:55.292Z,11.98
2023-05-06T23:58:49.685Z,11.83
